Time;durP1;ratioP1;P1;durP2;ratioP2;P2;SDS_P1;SDS_P2;PMS_P1;PMS_P2;Temp;Humidity;BMP_temperature;BMP_pressure;BME280_temperature;BME280_humidity;BME280_pressure;Samples;Min_cycle;Max_cycle;Signal;HPM_P1;HPM_P2
2023/11/12 00:02:37;;;;;;;39.40;20.30;;;;;;;5.44;91.14;98864.48;130717;1256;108571;-78
2023/11/12 00:05:42;;;;;;;40.60;20.60;;;;;;;5.48;91.05;98865.73;130669;1257;108802;-78
2023/11/12 00:08:48;;;;;;;40.20;20.60;;;;;;;5.51;91.13;98867.61;130711;1257;108646;-78
2023/11/12 00:11:54;;;;;;;38.60;19.80;;;;;;;5.45;91.39;98866.05;130755;1254;108612;-77
2023/11/12 00:15:00;;;;;;;39.90;20.10;;;;;;;5.33;91.45;98866.55;130678;1254;106407;-77
2023/11/12 00:18:06;;;;;;;34.00;17.40;;;;;;;5.30;91.35;98869.19;130673;1254;107808;-77
2023/11/12 00:21:12;;;;;;;34.30;17.20;;;;;;;5.33;91.29;98864.98;130697;1259;107335;-78
2023/11/12 00:24:17;;;;;;;34.30;17.60;;;;;;;5.39;91.43;98866.56;130652;1253;106113;-79
2023/11/12 00:27:23;;;;;;;32.00;17.00;;;;;;;5.37;91.61;98867.27;130765;1257;106959;-79
2023/11/12 00:30:28;;;;;;;27.60;14.20;;;;;;;5.28;91.73;98870.99;130654;1259;106777;-79
2023/11/12 00:33:34;;;;;;;22.90;12.50;;;;;;;5.10;91.77;98873.60;130693;1260;106548;-79
2023/11/12 00:36:42;;;;;;;26.50;14.40;;;;;;;4.99;92.72;98877.50;130697;1259;108686;-78
2023/11/12 00:39:48;;;;;;;26.10;13.50;;;;;;;4.91;93.34;98878.19;130662;1259;106820;-78
2023/11/12 00:42:54;;;;;;;30.00;16.00;;;;;;;4.87;92.56;98880.07;130636;1254;107322;-79
2023/11/12 00:46:00;;;;;;;31.20;15.90;;;;;;;4.92;92.73;98883.68;130705;1254;107673;-78
2023/11/12 00:49:06;;;;;;;30.90;16.00;;;;;;;4.90;92.88;98889.64;130606;1257;106487;-78
2023/11/12 00:52:12;;;;;;;30.30;16.00;;;;;;;4.93;92.69;98889.74;130615;1259;106983;-78
2023/11/12 00:55:18;;;;;;;31.60;16.20;;;;;;;4.97;92.83;98885.52;130639;1257;108567;-78
2023/11/12 00:58:23;;;;;;;30.00;16.30;;;;;;;5.04;93.10;98887.66;130792;1259;107809;-78
2023/11/12 01:01:29;;;;;;;30.30;15.30;;;;;;;5.06;92.46;98885.14;130725;1257;107542;-78
2023/11/12 01:04:35;;;;;;;28.80;15.10;;;;;;;5.15;92.50;98886.77;130673;1254;106495;-78
2023/11/12 01:07:40;;;;;;;26.90;13.30;;;;;;;5.18;92.44;98886.77;130643;1258;108339;-79
2023/11/12 01:10:46;;;;;;;25.30;13.60;;;;;;;5.18;92.38;98889.08;130701;1254;108693;-78
2023/11/12 01:13:53;;;;;;;27.20;14.30;;;;;;;5.16;92.40;98889.95;130581;1257;108542;-78
2023/11/12 01:16:58;;;;;;;28.60;14.60;;;;;;;5.20;92.53;98884.09;130704;1253;106578;-77
2023/11/12 01:20:06;;;;;;;25.70;13.90;;;;;;;5.26;92.21;98885.23;130608;1254;108096;-78
2023/11/12 01:23:13;;;;;;;28.40;14.10;;;;;;;5.29;92.41;98886.06;130642;1259;107532;-78
2023/11/12 01:26:19;;;;;;;25.10;12.80;;;;;;;5.17;92.75;98889.70;130727;1257;106670;-79
2023/11/12 01:29:25;;;;;;;23.30;12.60;;;;;;;5.07;92.53;98891.59;130576;1257;109455;-78
2023/11/12 01:32:31;;;;;;;23.50;12.80;;;;;;;5.06;92.93;98893.92;130688;1254;108234;-78
2023/11/12 01:35:36;;;;;;;24.80;13.50;;;;;;;5.08;92.54;98895.33;130697;1257;106928;-79
2023/11/12 01:38:42;;;;;;;26.60;14.10;;;;;;;5.05;92.84;98896.47;130662;1256;107777;-78
2023/11/12 01:41:48;;;;;;;29.40;14.60;;;;;;;5.01;92.87;98897.28;130673;1253;108490;-78
2023/11/12 01:44:53;;;;;;;23.50;13.70;;;;;;;4.97;93.05;98897.67;130678;1257;107224;-79
2023/11/12 01:47:59;;;;;;;24.10;12.50;;;;;;;4.91;93.31;98899.60;130697;1259;106629;-78
2023/11/12 01:51:06;;;;;;;24.60;13.70;;;;;;;4.91;93.38;98905.30;130671;1259;107588;-78
2023/11/12 01:54:12;;;;;;;25.10;13.00;;;;;;;4.96;93.35;98904.13;130706;1259;106827;-78
2023/11/12 01:57:19;;;;;;;28.00;14.70;;;;;;;5.03;93.12;98909.03;130885;1257;107574;-78
2023/11/12 02:00:26;;;;;;;29.40;16.00;;;;;;;5.12;93.06;98907.63;130749;1257;108684;-79
2023/11/12 02:03:33;;;;;;;30.80;15.90;;;;;;;5.14;92.74;98909.09;130703;1259;106572;-80
2023/11/12 02:06:38;;;;;;;31.20;16.70;;;;;;;5.15;92.86;98909.96;130771;1260;108214;-79
2023/11/12 02:09:44;;;;;;;33.00;17.00;;;;;;;5.24;93.09;98912.29;130676;1259;108734;-81
2023/11/12 02:12:50;;;;;;;32.70;17.30;;;;;;;5.22;93.02;98914.12;130966;1254;109251;-80
2023/11/12 02:15:56;;;;;;;33.60;17.70;;;;;;;5.12;92.90;98909.94;130696;1254;107795;-78
2023/11/12 02:19:02;;;;;;;35.50;18.60;;;;;;;5.15;93.05;98910.52;130717;1257;107406;-78
2023/11/12 02:22:08;;;;;;;35.80;19.20;;;;;;;5.23;92.90;98914.47;130497;1254;107502;-80
2023/11/12 02:25:14;;;;;;;35.40;18.00;;;;;;;5.27;92.56;98917.80;130644;1260;108581;-81
2023/11/12 02:28:20;;;;;;;32.60;16.80;;;;;;;5.25;92.66;98915.17;130707;1253;107836;-79
2023/11/12 02:31:26;;;;;;;33.40;16.70;;;;;;;5.22;92.75;98912.29;130608;1255;108702;-78
2023/11/12 02:34:31;;;;;;;32.80;16.40;;;;;;;5.22;93.02;98912.61;130592;1267;107041;-79
2023/11/12 02:37:38;;;;;;;30.20;15.80;;;;;;;5.31;92.82;98917.38;130669;1255;106829;-78
2023/11/12 02:40:45;;;;;;;37.80;18.40;;;;;;;5.42;92.75;98918.39;130719;1263;106840;-77
2023/11/12 02:43:52;;;;;;;35.80;16.60;;;;;;;5.50;92.56;98915.98;130745;1261;106955;-80
2023/11/12 02:46:57;;;;;;;29.90;15.60;;;;;;;5.53;92.43;98916.13;130849;1254;108688;-80
2023/11/12 02:50:30;;;;;;;37.60;17.50;;;;;;;5.55;92.47;98914.63;130721;1259;108504;-80
2023/11/12 02:53:36;;;;;;;30.80;16.40;;;;;;;5.56;92.35;98922.14;130757;1257;108861;-77
2023/11/12 02:56:41;;;;;;;29.20;14.70;;;;;;;5.55;92.25;98929.00;131000;1254;106381;-78
2023/11/12 02:59:47;;;;;;;29.40;14.60;;;;;;;5.50;92.01;98928.18;130756;1257;108421;-78
2023/11/12 03:02:52;;;;;;;28.40;15.30;;;;;;;5.45;92.32;98930.95;130682;1257;108027;-77
2023/11/12 03:05:58;;;;;;;30.80;16.10;;;;;;;5.47;92.33;98929.15;130763;1253;108420;-78
2023/11/12 03:09:05;;;;;;;27.90;15.40;;;;;;;5.54;92.28;98925.02;130761;1254;108641;-78
2023/11/12 03:12:11;;;;;;;26.00;14.40;;;;;;;5.57;91.86;98929.27;130811;1255;107743;-78
2023/11/12 03:15:16;;;;;;;30.70;15.20;;;;;;;5.57;91.84;98924.49;130788;1254;107911;-78
2023/11/12 03:18:22;;;;;;;27.60;14.00;;;;;;;5.51;91.73;98929.34;130703;1258;108572;-78
2023/11/12 03:21:28;;;;;;;23.60;13.50;;;;;;;5.46;91.84;98928.61;130825;1258;109067;-78
2023/11/12 03:24:35;;;;;;;30.10;15.60;;;;;;;5.40;91.73;98937.95;130714;1257;107609;-78
2023/11/12 03:27:41;;;;;;;28.50;15.10;;;;;;;5.41;91.84;98942.50;130819;1259;105456;-78
2023/11/12 03:30:46;;;;;;;29.70;15.10;;;;;;;5.37;91.58;98940.46;130753;1258;106987;-78
2023/11/12 03:33:53;;;;;;;28.10;15.10;;;;;;;5.24;91.47;98944.39;130702;1257;106694;-79
2023/11/12 03:36:58;;;;;;;35.70;16.50;;;;;;;5.11;91.77;98944.60;130813;1257;107523;-78
2023/11/12 03:40:05;;;;;;;30.10;14.40;;;;;;;5.11;92.25;98943.81;130627;1258;107229;-78
2023/11/12 03:43:11;;;;;;;34.30;15.30;;;;;;;5.16;92.27;98944.41;130702;1257;106565;-78
2023/11/12 03:46:16;;;;;;;26.90;14.30;;;;;;;5.24;92.13;98943.27;130646;1254;106696;-78
2023/11/12 03:49:22;;;;;;;31.10;15.30;;;;;;;5.28;92.16;98942.41;130680;1254;107749;-79
2023/11/12 03:52:27;;;;;;;26.00;14.30;;;;;;;5.32;91.82;98946.38;130659;1259;106460;-79
2023/11/12 03:55:33;;;;;;;25.20;14.50;;;;;;;5.28;91.53;98943.64;130572;1254;108468;-78
2023/11/12 03:58:38;;;;;;;28.30;14.60;;;;;;;5.28;91.90;98944.14;131158;1254;108496;-78
2023/11/12 04:01:45;;;;;;;25.20;13.60;;;;;;;5.32;91.96;98946.05;130736;1257;106923;-78
2023/11/12 04:04:50;;;;;;;23.30;12.60;;;;;;;5.34;91.83;98947.11;130721;1259;108625;-78
2023/11/12 04:07:56;;;;;;;24.70;13.30;;;;;;;5.31;91.72;98946.51;130664;1254;107366;-78
2023/11/12 04:11:01;;;;;;;25.40;13.20;;;;;;;5.34;91.88;98949.41;130754;1259;108709;-78
2023/11/12 04:14:08;;;;;;;24.70;13.80;;;;;;;5.36;91.77;98948.46;130699;1259;106518;-78
2023/11/12 04:17:14;;;;;;;24.80;13.50;;;;;;;5.40;91.87;98945.30;130721;1259;107084;-79
2023/11/12 04:20:20;;;;;;;25.50;13.60;;;;;;;5.44;91.91;98946.41;130680;1259;108678;-79
2023/11/12 04:23:25;;;;;;;24.50;13.60;;;;;;;5.43;91.64;98945.27;130716;1259;107122;-79
2023/11/12 04:26:31;;;;;;;25.30;13.70;;;;;;;5.45;91.82;98948.05;130730;1257;108202;-78
2023/11/12 04:29:37;;;;;;;24.20;12.60;;;;;;;5.43;91.69;98949.85;130643;1259;106722;-79
2023/11/12 04:32:44;;;;;;;26.30;12.70;;;;;;;5.36;91.65;98944.63;130713;1254;107770;-78
2023/11/12 04:35:49;;;;;;;26.50;13.70;;;;;;;5.36;92.01;98944.04;130689;1259;106824;-79
2023/11/12 04:38:57;;;;;;;29.30;14.60;;;;;;;5.40;91.78;98944.67;130671;1259;108337;-78
2023/11/12 04:42:02;;;;;;;23.40;12.80;;;;;;;5.47;91.89;98948.60;130717;1259;106888;-78
2023/11/12 04:45:09;;;;;;;26.70;14.10;;;;;;;5.49;91.79;98954.73;130692;1255;107173;-79
2023/11/12 04:48:15;;;;;;;24.60;11.80;;;;;;;5.49;91.90;98956.17;130751;1259;107679;-79
2023/11/12 04:51:21;;;;;;;23.90;12.40;;;;;;;5.47;91.77;98960.73;130666;1254;106658;-78
2023/11/12 04:54:26;;;;;;;26.00;14.80;;;;;;;5.41;91.80;98963.46;130726;1254;106915;-78
2023/11/12 04:57:32;;;;;;;34.70;19.50;;;;;;;5.43;92.03;98963.95;130941;1258;108451;-78
2023/11/12 05:00:39;;;;;;;78.00;41.80;;;;;;;5.43;91.61;98971.09;130680;1258;106991;-78
2023/11/12 05:03:45;;;;;;;47.60;27.20;;;;;;;5.45;91.97;98972.23;130877;1257;106535;-79
2023/11/12 05:06:51;;;;;;;35.60;17.70;;;;;;;5.44;91.71;98973.44;130771;1259;106473;-81
2023/11/12 05:09:56;;;;;;;22.30;11.80;;;;;;;5.39;91.81;98976.59;130887;1259;108613;-78
2023/11/12 05:13:02;;;;;;;37.00;16.00;;;;;;;5.29;91.54;98977.53;130787;1257;106829;-80
2023/11/12 05:16:08;;;;;;;38.30;23.70;;;;;;;5.17;91.77;98980.88;130774;1253;106542;-79
2023/11/12 05:19:14;;;;;;;31.40;17.70;;;;;;;5.07;91.90;98980.19;131011;1254;105629;-80
2023/11/12 05:22:20;;;;;;;23.20;12.50;;;;;;;4.98;92.12;98987.83;130828;1254;107647;-80
2023/11/12 05:25:26;;;;;;;33.10;16.20;;;;;;;4.93;92.27;98987.96;130793;1254;106402;-80
2023/11/12 05:28:32;;;;;;;171.80;88.20;;;;;;;4.84;92.18;98993.88;130859;1257;107590;-81
2023/11/12 05:31:37;;;;;;;35.50;18.20;;;;;;;4.91;92.24;98994.98;130744;1254;107773;-81
2023/11/12 05:34:43;;;;;;;20.60;11.70;;;;;;;5.00;92.01;98992.70;130811;1259;106356;-79
2023/11/12 05:37:48;;;;;;;34.20;18.10;;;;;;;5.00;91.47;98992.34;130772;1259;107049;-80
2023/11/12 05:40:54;;;;;;;24.20;14.70;;;;;;;4.99;91.53;98991.70;130734;1254;106753;-80
2023/11/12 05:44:00;;;;;;;26.90;15.40;;;;;;;4.95;91.31;98993.53;130769;1259;106574;-80
2023/11/12 05:47:06;;;;;;;53.40;26.70;;;;;;;4.90;91.25;98996.52;130952;1254;108299;-79
2023/11/12 05:50:12;;;;;;;440.70;163.70;;;;;;;4.91;91.61;98994.81;130737;1260;106402;-80
2023/11/12 05:53:19;;;;;;;196.80;66.60;;;;;;;4.91;91.47;98997.83;131062;1258;108668;-80
2023/11/12 05:56:25;;;;;;;184.50;71.40;;;;;;;4.83;91.22;99001.76;131124;1254;107823;-80
2023/11/12 05:59:31;;;;;;;106.50;48.40;;;;;;;4.78;91.38;99004.71;131414;1254;106958;-79
2023/11/12 06:02:37;;;;;;;44.80;22.40;;;;;;;4.73;91.32;99012.41;130838;1258;107668;-81
2023/11/12 06:05:43;;;;;;;43.30;27.70;;;;;;;4.71;91.14;99020.34;130905;1258;106721;-78
2023/11/12 06:08:48;;;;;;;60.00;35.80;;;;;;;4.74;91.46;99018.84;130893;1259;106377;-79
2023/11/12 06:11:55;;;;;;;247.90;129.10;;;;;;;4.83;91.25;99016.39;130803;1254;107523;-81
2023/11/12 06:15:00;;;;;;;311.30;112.70;;;;;;;4.86;91.00;99020.13;130711;1255;106273;-79
2023/11/12 06:18:06;;;;;;;477.70;187.20;;;;;;;4.79;90.55;99023.59;131115;1253;108505;-80
2023/11/12 06:21:12;;;;;;;351.30;166.10;;;;;;;4.67;90.94;99027.66;130889;1259;107633;-79
2023/11/12 06:24:18;;;;;;;355.20;182.00;;;;;;;4.65;90.99;99033.21;130765;1258;108452;-78
2023/11/12 06:27:24;;;;;;;544.80;173.30;;;;;;;4.74;91.10;99032.38;130895;1258;108441;-78
2023/11/12 06:30:40;;;;;;;52.40;22.00;;;;;;;4.80;90.77;99031.45;130989;1267;109116;-80
2023/11/12 06:33:46;;;;;;;279.10;78.60;;;;;;;4.74;90.27;99030.55;130813;1269;108688;-78
2023/11/12 06:36:52;;;;;;;104.10;36.20;;;;;;;4.69;90.49;99034.72;130660;1259;107767;-78
2023/11/12 06:39:57;;;;;;;491.20;172.40;;;;;;;4.63;90.58;99034.05;130736;1254;106961;-78
2023/11/12 06:43:03;;;;;;;941.00;352.80;;;;;;;4.65;91.05;99035.47;130733;1259;108721;-78
2023/11/12 06:46:10;;;;;;;255.80;78.00;;;;;;;4.72;91.01;99035.72;130744;1259;107856;-79
2023/11/12 06:49:16;;;;;;;38.70;21.60;;;;;;;4.68;90.35;99035.76;130683;1257;108624;-78
2023/11/12 06:52:22;;;;;;;37.20;19.10;;;;;;;4.56;90.76;99043.59;130763;1260;108298;-78
2023/11/12 06:55:29;;;;;;;33.90;19.10;;;;;;;4.64;91.11;99046.86;130669;1259;107646;-80
2023/11/12 06:58:35;;;;;;;33.70;19.00;;;;;;;4.61;90.72;99051.59;130834;1254;106608;-79
2023/11/12 07:01:41;;;;;;;32.80;18.70;;;;;;;4.55;90.92;99055.23;130848;1256;106587;-78
2023/11/12 07:04:47;;;;;;;50.40;25.30;;;;;;;4.45;90.84;99052.20;130845;1257;108401;-79
2023/11/12 07:07:53;;;;;;;39.30;20.80;;;;;;;4.41;91.46;99054.85;130849;1254;107737;-78
2023/11/12 07:11:00;;;;;;;33.20;18.00;;;;;;;4.47;91.29;99051.86;130831;1260;106979;-79
2023/11/12 07:14:05;;;;;;;114.10;53.90;;;;;;;4.48;91.09;99051.85;130885;1257;107713;-79
2023/11/12 07:17:11;;;;;;;96.80;44.40;;;;;;;4.59;91.51;99050.36;130832;1257;107459;-80
2023/11/12 07:20:17;;;;;;;64.20;32.30;;;;;;;4.75;91.40;99053.06;130968;1257;106663;-78
2023/11/12 07:23:22;;;;;;;60.10;32.80;;;;;;;4.90;91.42;99058.14;130734;1259;108653;-79
2023/11/12 07:26:28;;;;;;;46.70;26.30;;;;;;;5.03;91.29;99061.34;130706;1259;108090;-78
2023/11/12 07:29:37;;;;;;;40.00;24.30;;;;;;;5.11;90.95;99060.19;130936;1257;108323;-82
2023/11/12 07:32:43;;;;;;;35.90;18.20;;;;;;;5.12;90.80;99066.60;130914;1258;106405;-78
2023/11/12 07:35:49;;;;;;;40.20;23.10;;;;;;;5.07;90.63;99068.86;130745;1255;107864;-79
2023/11/12 07:38:55;;;;;;;70.60;32.50;;;;;;;5.01;91.17;99070.11;130844;1265;106815;-78
2023/11/12 07:42:01;;;;;;;45.60;25.40;;;;;;;5.11;91.38;99067.64;130800;1258;107985;-79
2023/11/12 07:45:11;;;;;;;42.90;24.70;;;;;;;5.21;91.47;99074.53;130963;1258;107390;-78
2023/11/12 07:48:17;;;;;;;39.50;23.20;;;;;;;5.23;91.26;99070.38;130819;1259;106447;-78
2023/11/12 07:51:23;;;;;;;39.10;21.90;;;;;;;5.24;91.53;99069.95;130732;1254;107138;-78
2023/11/12 07:54:28;;;;;;;137.30;51.40;;;;;;;5.31;91.39;99075.19;130806;1258;107796;-78
2023/11/12 07:57:34;;;;;;;48.80;25.30;;;;;;;5.39;91.47;99073.88;130963;1259;107301;-80
2023/11/12 08:00:40;;;;;;;41.30;23.70;;;;;;;5.42;91.38;99073.27;130877;1258;105580;-78
2023/11/12 08:03:45;;;;;;;41.50;24.40;;;;;;;5.43;91.59;99069.95;130872;1267;106237;-78
2023/11/12 08:06:51;;;;;;;43.20;25.60;;;;;;;5.44;91.68;99073.95;130780;1260;107529;-79
2023/11/12 08:09:57;;;;;;;41.40;22.90;;;;;;;5.45;92.03;99077.94;131169;1259;106983;-78
2023/11/12 08:13:02;;;;;;;45.70;26.30;;;;;;;5.49;92.05;99082.25;130976;1257;108491;-80
2023/11/12 08:16:09;;;;;;;42.60;24.50;;;;;;;5.54;92.21;99088.91;130880;1259;105972;-80
2023/11/12 08:19:15;;;;;;;45.60;25.80;;;;;;;5.62;92.40;99089.10;130944;1259;108463;-79
2023/11/12 08:22:21;;;;;;;41.90;25.30;;;;;;;5.81;92.01;99090.83;130934;1257;107735;-81
2023/11/12 08:25:26;;;;;;;60.20;34.60;;;;;;;5.96;91.84;99096.09;130821;1260;107704;-78
2023/11/12 08:28:32;;;;;;;50.00;26.50;;;;;;;5.97;91.50;99098.13;130768;1259;108288;-78
2023/11/12 08:31:37;;;;;;;51.00;29.10;;;;;;;6.00;91.80;99094.98;131018;1253;107834;-79
2023/11/12 08:34:43;;;;;;;51.90;30.10;;;;;;;6.10;91.82;99096.59;130876;1259;108380;-78
2023/11/12 08:37:49;;;;;;;64.20;35.40;;;;;;;6.24;91.86;99098.61;130798;1260;107650;-78
2023/11/12 08:40:54;;;;;;;47.00;27.90;;;;;;;6.37;92.12;99101.88;130776;1257;108466;-78
2023/11/12 08:44:00;;;;;;;50.50;30.00;;;;;;;6.48;91.64;99094.45;130789;1260;106720;-78
2023/11/12 08:47:06;;;;;;;91.90;46.20;;;;;;;6.47;91.72;99099.84;130752;1267;107190;-78
2023/11/12 08:50:12;;;;;;;62.50;33.60;;;;;;;6.54;92.15;99103.77;130692;1254;105798;-79
2023/11/12 08:53:17;;;;;;;53.60;30.30;;;;;;;6.59;91.55;99107.63;130952;1259;106682;-78
2023/11/12 08:56:23;;;;;;;59.10;32.60;;;;;;;6.64;91.44;99120.70;130789;1258;106578;-79
2023/11/12 08:59:28;;;;;;;62.10;35.80;;;;;;;6.77;91.75;99127.77;130956;1257;106734;-79
2023/11/12 09:02:34;;;;;;;58.80;34.30;;;;;;;6.79;91.50;99131.39;130756;1259;106663;-79
2023/11/12 09:05:39;;;;;;;58.10;33.60;;;;;;;6.73;91.29;99126.33;130914;1254;106808;-78
2023/11/12 09:08:45;;;;;;;64.60;36.10;;;;;;;6.73;91.52;99126.23;130807;1257;106812;-81
2023/11/12 09:11:51;;;;;;;63.30;33.10;;;;;;;6.74;91.48;99130.14;130934;1259;107803;-78
2023/11/12 09:14:57;;;;;;;58.10;32.70;;;;;;;6.73;91.92;99126.69;130994;1259;105655;-80
2023/11/12 09:18:03;;;;;;;58.90;33.70;;;;;;;6.76;91.93;99129.39;130964;1264;108672;-80
2023/11/12 09:21:08;;;;;;;69.50;40.60;;;;;;;6.78;91.80;99130.30;131005;1259;106722;-80
2023/11/12 09:24:14;;;;;;;94.90;43.70;;;;;;;6.85;92.23;99127.56;130836;1254;109305;-78
2023/11/12 09:27:20;;;;;;;63.10;38.20;;;;;;;6.97;92.22;99124.96;130953;1258;107876;-79
2023/11/12 09:30:26;;;;;;;63.90;37.00;;;;;;;7.06;92.05;99130.05;130841;1259;106554;-78
2023/11/12 09:33:31;;;;;;;64.40;38.20;;;;;;;7.02;92.05;99128.29;130777;1259;107634;-78
2023/11/12 09:36:37;;;;;;;62.40;34.50;;;;;;;7.00;92.14;99130.83;130697;1254;107472;-79
2023/11/12 09:39:43;;;;;;;55.00;32.20;;;;;;;6.98;92.20;99132.92;130898;1258;107126;-78
2023/11/12 09:42:53;;;;;;;56.00;32.70;;;;;;;7.01;92.35;99133.38;130755;1260;106479;-78
2023/11/12 09:45:59;;;;;;;56.40;34.70;;;;;;;7.07;92.26;99135.56;130870;1259;108583;-78
2023/11/12 09:49:06;;;;;;;52.30;31.10;;;;;;;7.07;92.09;99132.54;130833;1260;107836;-80
2023/11/12 09:52:12;;;;;;;53.70;32.90;;;;;;;7.06;92.03;99133.77;130816;1258;106815;-80
2023/11/12 09:55:19;;;;;;;50.80;28.60;;;;;;;7.12;92.35;99132.83;130891;1258;106847;-80
2023/11/12 09:58:25;;;;;;;45.60;26.70;;;;;;;7.19;92.09;99136.48;131041;1258;106723;-78
2023/11/12 10:01:32;;;;;;;48.40;29.10;;;;;;;7.20;92.04;99139.17;130773;1259;110135;-79
2023/11/12 10:04:42;;;;;;;49.30;30.50;;;;;;;7.24;92.23;99135.22;130741;1254;107692;-81
2023/11/12 10:07:47;;;;;;;50.80;30.00;;;;;;;7.31;92.35;99137.19;130848;1267;108604;-79
2023/11/12 10:10:54;;;;;;;47.50;29.00;;;;;;;7.42;92.28;99133.56;131010;1255;106856;-78
2023/11/12 10:13:59;;;;;;;45.60;27.20;;;;;;;7.52;92.00;99137.91;130778;1259;107756;-78
2023/11/12 10:17:11;;;;;;;39.30;23.90;;;;;;;7.52;92.05;99139.08;130997;1267;107369;-78
2023/11/12 10:20:24;;;;;;;41.70;25.60;;;;;;;7.59;91.83;99139.39;130775;1259;107683;-79
2023/11/12 10:23:31;;;;;;;44.00;25.20;;;;;;;7.71;91.80;99140.65;130787;1260;108797;-78
2023/11/12 10:26:38;;;;;;;40.10;25.30;;;;;;;7.76;91.60;99142.05;130826;1260;107729;-78
2023/11/12 10:29:44;;;;;;;37.90;24.40;;;;;;;7.84;91.83;99139.12;130829;1260;107016;-80
2023/11/12 10:32:50;;;;;;;39.10;24.00;;;;;;;7.91;91.29;99139.83;131048;1260;108380;-78
2023/11/12 10:35:56;;;;;;;32.30;20.10;;;;;;;7.92;91.16;99142.52;130694;1267;108526;-79
2023/11/12 10:39:09;;;;;;;29.10;18.00;;;;;;;7.89;91.16;99140.89;130774;1259;107796;-79
2023/11/12 10:42:24;;;;;;;30.80;18.90;;;;;;;7.91;91.20;99142.59;130764;1259;108548;-79
2023/11/12 10:45:32;;;;;;;28.50;17.90;;;;;;;7.94;91.10;99146.38;130703;1254;150688;-80
2023/11/12 10:48:38;;;;;;;25.40;16.50;;;;;;;7.93;90.83;99148.42;130763;1259;107617;-79
2023/11/12 10:51:46;;;;;;;25.60;16.30;;;;;;;7.97;90.80;99142.67;130703;1259;108456;-80
2023/11/12 10:54:52;;;;;;;23.80;14.70;;;;;;;8.04;91.09;99144.73;130819;1263;108558;-79
2023/11/12 10:58:00;;;;;;;24.00;14.20;;;;;;;8.14;90.87;99147.04;130862;1261;107462;-78
2023/11/12 11:01:06;;;;;;;36.40;18.40;;;;;;;8.20;90.69;99148.70;130924;1260;107047;-79
2023/11/12 11:04:15;;;;;;;24.30;14.90;;;;;;;8.29;90.55;99153.09;130800;1260;108471;-78
2023/11/12 11:07:21;;;;;;;23.10;15.60;;;;;;;8.41;91.02;99150.72;130834;1258;105502;-78
2023/11/12 11:10:27;;;;;;;27.00;15.90;;;;;;;8.49;90.47;99152.33;130802;1260;106542;-78
2023/11/12 11:13:34;;;;;;;25.80;17.00;;;;;;;8.45;89.86;99152.92;130785;1260;107416;-78
2023/11/12 11:16:50;;;;;;;25.70;16.10;;;;;;;8.32;90.00;99149.61;130780;1255;106497;-78
2023/11/12 11:19:56;;;;;;;21.10;13.50;;;;;;;8.27;90.20;99147.80;130764;1259;106814;-78
2023/11/12 11:23:39;;;;;;;28.30;17.20;;;;;;;8.20;89.53;99152.94;130809;1260;108767;-78
2023/11/12 11:26:46;;;;;;;31.70;17.60;;;;;;;8.12;90.26;99151.29;130745;1260;106932;-79
2023/11/12 11:30:12;;;;;;;26.60;16.60;;;;;;;8.17;90.38;99151.48;130889;1267;107004;-78
2023/11/12 11:33:18;;;;;;;28.90;17.20;;;;;;;8.19;90.31;99151.09;130886;1258;106318;-80
2023/11/12 11:36:25;;;;;;;28.80;17.00;;;;;;;8.20;89.56;99151.36;130789;1267;106939;-80
2023/11/12 11:39:32;;;;;;;25.70;15.40;;;;;;;8.13;89.32;99151.22;130780;1259;107849;-79
2023/11/12 11:42:38;;;;;;;21.90;13.80;;;;;;;8.12;89.65;99156.84;131100;1258;108406;-80
2023/11/12 11:46:13;;;;;;;29.40;16.70;;;;;;;8.16;90.01;99153.38;130901;1257;107739;-79
2023/11/12 11:49:21;;;;;;;25.00;16.00;;;;;;;8.29;89.79;99150.93;130822;1254;106532;-79
2023/11/12 11:52:29;;;;;;;25.70;16.20;;;;;;;8.35;89.80;99152.56;130763;1267;108783;-80
2023/11/12 11:55:36;;;;;;;26.00;16.60;;;;;;;8.43;89.34;99157.55;130800;1255;107704;-80
2023/11/12 11:58:49;;;;;;;26.90;16.90;;;;;;;8.44;89.37;99162.27;130864;1255;106871;-79
2023/11/12 12:01:59;;;;;;;25.00;15.20;;;;;;;8.48;89.28;99163.09;130831;1254;109370;-79
2023/11/12 12:05:05;;;;;;;26.40;15.60;;;;;;;8.41;88.22;99161.02;130778;1260;107435;-79
2023/11/12 12:08:11;;;;;;;28.20;16.60;;;;;;;8.35;88.72;99158.80;130756;1254;108783;-79
2023/11/12 12:11:22;;;;;;;28.70;17.30;;;;;;;8.35;88.59;99160.77;130792;1255;108311;-78
2023/11/12 12:14:28;;;;;;;30.30;17.60;;;;;;;8.30;88.80;99162.16;130914;1260;107583;-80
2023/11/12 12:17:41;;;;;;;28.10;18.00;;;;;;;8.27;88.44;99159.63;130991;1258;106763;-80
2023/11/12 12:20:46;;;;;;;29.60;19.10;;;;;;;8.29;88.91;99163.11;131100;1260;107736;-80
2023/11/12 12:23:53;;;;;;;30.30;18.50;;;;;;;8.37;89.18;99164.66;130994;1254;108791;-79
2023/11/12 12:26:59;;;;;;;41.60;25.40;;;;;;;8.41;88.80;99161.04;130778;1261;106615;-79
2023/11/12 12:30:13;;;;;;;32.20;18.90;;;;;;;8.44;88.75;99159.79;130885;1263;107455;-79
2023/11/12 12:33:18;;;;;;;68.50;39.60;;;;;;;8.42;88.56;99159.51;130846;1267;108150;-80
2023/11/12 12:36:24;;;;;;;37.00;20.50;;;;;;;8.43;88.80;99158.52;130840;1263;106283;-80
2023/11/12 12:39:46;;;;;;;33.90;19.10;;;;;;;8.47;88.60;99157.91;130797;1257;106829;-79
2023/11/12 12:42:57;;;;;;;26.40;17.20;;;;;;;8.48;88.30;99156.72;130837;1260;106734;-78
2023/11/12 12:46:05;;;;;;;27.40;15.80;;;;;;;8.45;87.91;99165.91;130643;1261;108085;-78
2023/11/12 12:49:11;;;;;;;23.00;14.00;;;;;;;8.40;87.90;99168.21;130738;1254;108614;-79
2023/11/12 12:52:23;;;;;;;24.20;13.80;;;;;;;8.32;87.78;99165.14;130621;1260;108345;-79
2023/11/12 12:55:29;;;;;;;23.20;14.80;;;;;;;8.27;88.49;99166.88;130825;1267;108278;-78
2023/11/12 12:58:41;;;;;;;26.10;16.20;;;;;;;8.28;88.55;99169.34;130870;1264;106165;-79
2023/11/12 13:01:47;;;;;;;29.00;17.30;;;;;;;8.32;88.90;99172.05;130688;1259;108624;-82
2023/11/12 13:04:53;;;;;;;25.10;16.40;;;;;;;8.34;88.91;99171.13;131197;1254;106589;-80
2023/11/12 13:07:59;;;;;;;24.50;16.00;;;;;;;8.30;88.43;99176.52;130969;1257;107840;-80
2023/11/12 13:11:07;;;;;;;23.70;15.50;;;;;;;8.17;88.59;99177.50;130796;1258;106872;-79
2023/11/12 13:14:13;;;;;;;27.60;15.90;;;;;;;8.12;88.51;99178.81;130806;1268;107793;-79
2023/11/12 13:17:19;;;;;;;27.10;16.20;;;;;;;8.05;88.71;99178.49;130868;1254;107116;-79
2023/11/12 13:20:25;;;;;;;25.20;15.10;;;;;;;8.06;88.68;99183.85;130731;1254;108553;-78
2023/11/12 13:23:32;;;;;;;24.20;15.70;;;;;;;8.11;88.71;99182.44;130737;1258;108793;-79
2023/11/12 13:26:38;;;;;;;26.50;16.40;;;;;;;8.21;88.73;99186.63;130653;1260;107468;-82
2023/11/12 13:29:47;;;;;;;25.80;16.10;;;;;;;8.26;88.26;99185.41;131413;1257;107498;-81
2023/11/12 13:32:53;;;;;;;23.00;14.50;;;;;;;8.23;88.03;99192.15;131092;1254;108648;-80
2023/11/12 13:36:01;;;;;;;25.60;13.50;;;;;;;8.19;88.30;99192.38;130799;1261;108587;-82
2023/11/12 13:39:08;;;;;;;23.90;15.30;;;;;;;8.19;88.26;99194.80;130966;1258;107719;-79
2023/11/12 13:42:14;;;;;;;26.30;15.90;;;;;;;8.20;88.23;99198.83;130841;1263;106432;-80
2023/11/12 13:45:20;;;;;;;22.40;14.50;;;;;;;8.19;88.21;99201.21;130874;1257;107028;-80
2023/11/12 13:48:26;;;;;;;22.80;15.10;;;;;;;8.16;88.02;99206.86;130958;1257;108631;-81
2023/11/12 13:51:34;;;;;;;23.30;15.00;;;;;;;8.13;88.13;99210.98;130929;1254;108722;-81
2023/11/12 13:54:41;;;;;;;24.10;14.40;;;;;;;8.12;88.41;99211.00;130955;1254;107567;-83
2023/11/12 13:57:48;;;;;;;22.10;13.10;;;;;;;8.14;88.37;99216.48;130979;1254;106796;-83
2023/11/12 14:00:53;;;;;;;26.90;15.30;;;;;;;8.18;88.37;99221.31;131929;1257;108718;-81
2023/11/12 14:03:59;;;;;;;29.20;15.60;;;;;;;8.25;88.45;99227.86;131250;1260;107203;-81
2023/11/12 14:07:05;;;;;;;24.60;15.70;;;;;;;8.30;88.28;99232.30;131512;1260;108486;-82
2023/11/12 14:10:14;;;;;;;31.90;16.50;;;;;;;8.36;88.35;99237.16;131187;1254;109146;-83